Time;durP1;ratioP1;P1;durP2;ratioP2;P2;SDS_P1;SDS_P2;PMS_P1;PMS_P2;Temp;Humidity;BMP_temperature;BMP_pressure;BME280_temperature;BME280_humidity;BME280_pressure;Samples;Min_cycle;Max_cycle;Signal;HPM_P1;HPM_P2
2023/01/17 00:02:24;;;;;;;;;0.00;0.00;;;;;10.29;74.91;97793.09;5000807;28;45579;-69
2023/01/17 00:10:20;;;;;;;;;0.00;0.00;;;;;10.10;75.87;97896.81;4999198;28;45388;-68
2023/01/17 00:12:51;;;;;;;;;0.00;0.00;;;;;9.82;76.64;97858.88;4997384;28;45589;-68
2023/01/17 00:15:18;;;;;;;;;1.00;0.00;;;;;9.98;76.06;97868.25;4996623;28;46271;-67
2023/01/17 00:17:45;;;;;;;;;0.00;0.00;;;;;9.91;76.23;97877.03;5002745;28;45451;-70
2023/01/17 00:26:04;;;;;;;;;1.00;0.00;;;;;9.28;76.85;97956.59;4998288;28;45731;-71
2023/01/17 01:35:28;;;;;;;;;0.00;0.00;;;;;8.94;75.97;97948.13;5009518;28;46535;-67
2023/01/17 01:37:54;;;;;;;;;0.00;0.00;;;;;8.98;75.41;97904.72;5012669;28;45523;-68
2023/01/17 01:40:21;;;;;;;;;0.00;0.00;;;;;8.95;74.87;97916.00;5007037;28;47164;-70
2023/01/17 01:42:55;;;;;;;;;0.00;0.00;;;;;9.00;74.00;97909.03;5008252;28;45425;-73
2023/01/17 01:45:26;;;;;;;;;0.00;0.00;;;;;9.07;74.35;97897.72;5011869;28;45297;-68
2023/01/17 01:48:05;;;;;;;;;0.00;0.00;;;;;8.92;74.81;97876.97;5003840;28;45452;-69
2023/01/17 01:50:34;;;;;;;;;0.00;0.00;;;;;9.18;73.91;97910.66;5009480;28;45485;-69
2023/01/17 01:53:02;;;;;;;;;0.00;0.00;;;;;9.28;73.52;97914.06;5011129;28;45516;-69
2023/01/17 01:55:38;;;;;;;;;0.00;0.00;;;;;9.29;73.56;97947.03;5010784;28;45221;-71
2023/01/17 01:58:10;;;;;;;;;0.00;0.00;;;;;9.33;73.62;97923.56;5006355;28;45502;-69
2023/01/17 02:00:39;;;;;;;;;0.00;0.00;;;;;9.35;74.09;97953.09;5011505;28;46066;-71
2023/01/17 02:03:10;;;;;;;;;0.00;0.00;;;;;9.37;74.39;97947.88;5007921;28;45854;-69
2023/01/17 02:05:36;;;;;;;;;0.00;0.00;;;;;9.28;74.76;97898.44;5012539;28;45514;-68
2023/01/17 02:08:09;;;;;;;;;0.00;0.00;;;;;9.47;75.08;97946.03;5006784;28;45625;-72
2023/01/17 02:10:37;;;;;;;;;0.00;0.00;;;;;9.24;75.33;97901.94;5010000;28;46340;-69
2023/01/17 02:13:04;;;;;;;;;0.00;0.00;;;;;9.50;75.40;97946.03;5008248;28;45480;-69
2023/01/17 02:15:42;;;;;;;;;0.00;0.00;;;;;9.55;75.21;97957.31;5018874;28;45300;-70
2023/01/17 02:18:28;;;;;;;;;0.00;0.00;;;;;9.56;75.30;97966.84;5012546;28;45574;-69
2023/01/17 02:21:21;;;;;;;;;0.00;0.00;;;;;9.35;75.19;97928.75;5009954;28;45473;-69
2023/01/17 02:24:08;;;;;;;;;0.00;0.00;;;;;9.60;75.37;97978.09;5008104;28;45463;-68
2023/01/17 02:26:34;;;;;;;;;0.00;0.00;;;;;9.61;75.32;97970.28;5007618;28;45338;-70
2023/01/17 02:29:20;;;;;;;;;0.00;0.00;;;;;9.63;75.40;97938.97;5010699;28;45525;-69
2023/01/17 02:31:50;;;;;;;;;0.00;0.00;;;;;9.56;75.27;97930.34;5015036;28;45363;-69
2023/01/17 02:34:29;;;;;;;;;0.00;0.00;;;;;9.63;75.49;97894.66;5008717;28;45558;-69
2023/01/17 02:37:03;;;;;;;;;0.00;0.00;;;;;9.61;75.59;97896.41;5006064;28;45438;-69
2023/01/17 02:39:47;;;;;;;;;0.00;0.00;;;;;9.64;75.95;97870.34;5023100;28;45428;-69
2023/01/17 02:42:20;;;;;;;;;0.00;0.00;;;;;9.67;75.26;97857.25;5003193;28;45478;-69
2023/01/17 02:44:46;;;;;;;;;0.00;0.00;;;;;9.68;75.33;97862.47;5007994;28;45407;-69
2023/01/17 02:47:30;;;;;;;;;0.00;0.00;;;;;9.72;75.46;97865.91;5008458;28;45505;-68
2023/01/17 02:50:07;;;;;;;;;0.00;0.00;;;;;9.71;75.55;97883.31;5010767;28;45595;-74
2023/01/17 02:52:42;;;;;;;;;0.00;0.00;;;;;9.75;75.27;97864.16;5004830;28;45446;-71
2023/01/17 02:55:31;;;;;;;;;0.00;0.00;;;;;9.72;75.33;97864.16;5006417;28;45470;-71
2023/01/17 02:57:59;;;;;;;;;0.00;0.00;;;;;9.79;75.46;97893.66;5007357;28;45446;-72
2023/01/17 03:00:43;;;;;;;;;0.00;0.00;;;;;9.78;75.73;97873.66;5006761;28;45467;-69
2023/01/17 03:03:26;;;;;;;;;0.00;0.00;;;;;9.78;75.66;97829.34;5006540;28;45627;-70
2023/01/17 03:06:17;;;;;;;;;0.00;0.00;;;;;9.66;75.43;97811.22;5007866;28;45739;-68
2023/01/17 03:08:47;;;;;;;;;0.00;0.00;;;;;9.74;75.79;97812.88;5015492;28;45636;-70
2023/01/17 03:11:13;;;;;;;;;0.00;0.00;;;;;9.60;75.38;97806.94;5006103;28;45557;-70
2023/01/17 03:13:41;;;;;;;;;0.00;0.00;;;;;9.73;75.82;97820.72;5008211;28;45964;-69
2023/01/17 03:16:12;;;;;;;;;0.00;0.00;;;;;9.70;76.32;97828.56;5013036;28;45336;-69
2023/01/17 03:18:37;;;;;;;;;0.00;0.00;;;;;9.62;76.45;97825.19;5011351;28;45399;-71
2023/01/17 03:21:03;;;;;;;;;0.00;0.00;;;;;9.54;76.46;97802.66;5005862;28;45306;-73
2023/01/17 03:23:28;;;;;;;;;0.00;0.00;;;;;9.71;76.47;97809.47;5008218;28;45522;-69
2023/01/17 03:25:54;;;;;;;;;0.00;0.00;;;;;9.74;76.06;97825.06;5010718;28;45586;-70
2023/01/17 03:28:19;;;;;;;;;0.00;0.00;;;;;9.76;76.32;97815.47;5003116;28;45311;-70
2023/01/17 03:30:45;;;;;;;;;0.00;0.00;;;;;9.76;76.31;97818.06;5015623;28;45427;-70
2023/01/17 03:33:10;;;;;;;;;0.00;0.00;;;;;9.50;76.78;97789.69;5004316;28;45297;-69
2023/01/17 03:35:36;;;;;;;;;0.00;0.00;;;;;9.65;76.44;97801.66;5008726;28;45459;-69
2023/01/17 03:38:01;;;;;;;;;0.00;0.00;;;;;9.55;76.35;97795.72;5007316;28;45495;-69
2023/01/17 03:40:27;;;;;;;;;0.00;0.00;;;;;9.82;76.39;97822.38;5006399;28;45395;-69
2023/01/17 03:42:52;;;;;;;;;1.00;0.00;;;;;9.84;76.69;97857.09;5006765;28;45688;-74
2023/01/17 03:45:18;;;;;;;;;0.00;0.00;;;;;9.72;76.69;97811.16;5007356;28;45443;-69
2023/01/17 03:47:44;;;;;;;;;0.00;0.00;;;;;9.74;76.19;97817.22;5010370;28;45727;-70
2023/01/17 03:50:12;;;;;;;;;0.00;0.00;;;;;9.88;76.28;97849.22;5011982;28;45481;-69
2023/01/17 03:52:37;;;;;;;;;0.00;0.00;;;;;9.89;75.87;97850.13;5010336;28;46118;-69
2023/01/17 03:55:04;;;;;;;;;0.00;0.00;;;;;9.85;75.67;97846.66;5011393;28;45419;-71
2023/01/17 03:57:29;;;;;;;;;1.33;0.00;;;;;9.95;75.71;97845.69;5017488;28;45540;-70
2023/01/17 03:59:55;;;;;;;;;0.00;0.00;;;;;9.94;76.11;97884.81;5028728;28;45558;-70
2023/01/17 04:02:23;;;;;;;;;0.67;0.00;;;;;9.81;75.78;97842.38;5001602;28;46560;-69
2023/01/17 04:04:48;;;;;;;;;0.00;0.00;;;;;10.06;75.54;97858.59;5016083;28;45489;-70
2023/01/17 04:07:14;;;;;;;;;0.00;0.00;;;;;10.07;75.46;97833.41;5016729;28;45317;-70
2023/01/17 04:09:39;;;;;;;;;1.00;0.00;;;;;10.11;74.93;97856.81;5017370;28;45565;-69
2023/01/17 04:12:05;;;;;;;;;1.00;0.00;;;;;10.08;74.77;97851.63;5016949;28;46071;-69
2023/01/17 04:14:31;;;;;;;;;0.33;0.00;;;;;10.09;74.41;97847.28;5000132;28;45345;-69
2023/01/17 04:16:56;;;;;;;;;2.00;0.67;;;;;10.10;74.76;97847.25;5015346;28;45747;-70
2023/01/17 04:19:22;;;;;;;;;1.00;1.00;;;;;9.94;74.15;97827.44;5016190;28;45218;-69
2023/01/17 04:21:48;;;;;;;;;1.00;0.00;;;;;9.91;72.28;97827.50;5014581;28;46285;-69
2023/01/17 04:24:13;;;;;;;;;0.00;0.00;;;;;10.06;71.90;97855.13;5015354;28;45479;-69
2023/01/17 04:26:39;;;;;;;;;0.00;0.00;;;;;10.05;72.00;97804.72;5014546;28;45396;-70
2023/01/17 04:29:04;;;;;;;;;0.00;0.00;;;;;10.13;71.47;97854.19;5015944;28;45429;-69
2023/01/17 04:31:30;;;;;;;;;0.00;0.00;;;;;10.23;70.32;97813.22;5015676;28;45796;-71
2023/01/17 04:33:55;;;;;;;;;0.00;0.00;;;;;10.25;70.76;97843.59;5014884;28;45583;-69
2023/01/17 04:36:21;;;;;;;;;0.00;0.00;;;;;10.25;69.75;97798.41;5016081;28;45520;-73
2023/01/17 04:38:46;;;;;;;;;0.00;0.00;;;;;10.25;69.86;97794.03;5016444;28;45575;-68
2023/01/17 04:41:12;;;;;;;;;1.00;0.00;;;;;10.31;69.91;97833.13;5015534;28;45581;-72
2023/01/17 04:43:37;;;;;;;;;2.00;0.00;;;;;10.32;70.40;97894.84;5015180;28;45541;-72
2023/01/17 04:46:08;;;;;;;;;0.00;0.00;;;;;10.29;72.66;97944.44;5019732;28;45427;-70
2023/01/17 04:48:34;;;;;;;;;1.00;0.00;;;;;9.95;73.71;97968.25;5032430;28;45410;-69
2023/01/17 04:51:01;;;;;;;;;0.00;0.00;;;;;10.04;72.03;98000.34;5018770;28;46279;-70
2023/01/17 04:53:27;;;;;;;;;0.67;0.00;;;;;9.92;70.52;98016.97;5019265;28;46201;-73
2023/01/17 04:55:52;;;;;;;;;1.00;0.00;;;;;9.72;71.66;98012.75;5019580;28;45423;-74
2023/01/17 04:58:18;;;;;;;;;0.00;0.00;;;;;9.68;74.02;98052.75;5019707;28;45416;-73
2023/01/17 05:00:44;;;;;;;;;0.33;0.00;;;;;9.55;74.21;98046.78;5018604;28;45418;-69
2023/01/17 05:03:09;;;;;;;;;0.00;0.00;;;;;9.48;74.86;98033.78;5013076;28;45700;-72
2023/01/17 05:05:34;;;;;;;;;0.00;0.00;;;;;9.41;74.22;97996.50;5018550;28;45521;-73
2023/01/17 05:08:00;;;;;;;;;0.00;0.00;;;;;9.31;74.56;97997.38;5018911;28;45423;-75
2023/01/17 05:10:26;;;;;;;;;1.00;0.00;;;;;9.31;74.73;98016.50;5019031;28;45530;-72
2023/01/17 05:12:55;;;;;;;;;1.00;0.00;;;;;9.26;74.73;98023.47;5019367;28;45487;-73
2023/01/17 05:15:22;;;;;;;;;0.00;0.00;;;;;9.25;75.08;98021.75;5018986;28;45842;-70
2023/01/17 05:17:49;;;;;;;;;0.00;0.00;;;;;9.24;75.45;98020.00;5018325;28;45490;-69
2023/01/17 05:20:15;;;;;;;;;2.50;0.00;;;;;9.27;75.02;98045.19;5014542;28;45547;-70
2023/01/17 05:22:40;;;;;;;;;0.00;0.00;;;;;9.24;74.93;98073.88;5018210;28;45499;-68
2023/01/17 05:25:06;;;;;;;;;1.00;0.00;;;;;9.26;74.92;98075.56;5017890;28;45371;-70
2023/01/17 05:27:32;;;;;;;;;0.75;0.00;;;;;9.29;74.17;98059.06;5019492;28;45442;-68
2023/01/17 05:29:57;;;;;;;;;0.00;0.00;;;;;9.19;73.55;98067.78;5017818;28;45444;-67
2023/01/17 05:32:23;;;;;;;;;0.00;0.00;;;;;9.17;73.33;98062.59;5017004;28;45534;-68
2023/01/17 05:34:49;;;;;;;;;0.00;0.00;;;;;9.05;73.72;98045.31;5015488;28;45482;-69
2023/01/17 05:37:15;;;;;;;;;0.50;0.00;;;;;9.06;73.49;98040.94;5017348;28;45686;-69
2023/01/17 05:39:41;;;;;;;;;0.00;0.00;;;;;9.03;73.85;98044.44;5014084;28;45962;-70
2023/01/17 05:42:06;;;;;;;;;1.00;0.00;;;;;9.02;73.91;98049.66;5014220;28;45573;-69
2023/01/17 05:44:32;;;;;;;;;0.00;0.00;;;;;9.02;73.09;98054.84;5016352;28;45419;-67
2023/01/17 05:46:57;;;;;;;;;0.00;0.00;;;;;9.01;73.20;98048.75;5016279;28;45573;-68
2023/01/17 05:49:23;;;;;;;;;0.00;0.00;;;;;8.96;73.27;98043.59;5016036;28;45626;-69
2023/01/17 05:51:48;;;;;;;;;0.00;0.00;;;;;8.94;73.45;98047.94;5015852;28;45603;-74
2023/01/17 05:54:14;;;;;;;;;0.50;0.00;;;;;8.70;72.98;97995.97;5014456;28;45245;-67
2023/01/17 05:56:39;;;;;;;;;0.00;0.00;;;;;9.04;72.81;98030.53;5014231;28;45508;-67
2023/01/17 05:59:05;;;;;;;;;0.00;0.00;;;;;9.08;72.24;98040.06;5014202;28;45743;-68
2023/01/17 06:01:30;;;;;;;;;0.00;0.00;;;;;9.09;72.20;98030.50;5014841;28;45622;-69
2023/01/17 06:03:56;;;;;;;;;0.00;0.00;;;;;9.02;72.56;98008.84;5016702;28;45270;-68
2023/01/17 06:06:21;;;;;;;;;0.00;0.00;;;;;9.14;72.12;98039.19;5016122;28;45515;-67
2023/01/17 06:08:47;;;;;;;;;0.00;0.00;;;;;9.13;71.64;98024.41;4998820;28;45538;-68
2023/01/17 06:11:13;;;;;;;;;0.33;0.00;;;;;9.16;71.92;98003.56;5008661;28;45817;-67
2023/01/17 06:13:38;;;;;;;;;0.33;0.00;;;;;9.19;71.41;98002.69;5017979;28;45624;-73
2023/01/17 06:16:04;;;;;;;;;0.00;0.00;;;;;9.20;71.70;98013.09;5018546;28;45574;-71
2023/01/17 06:18:30;;;;;;;;;0.00;0.00;;;;;9.20;71.89;97994.00;5017874;28;45950;-68
2023/01/17 06:20:56;;;;;;;;;0.00;0.00;;;;;9.24;71.91;97980.94;5016599;28;45725;-68
2023/01/17 06:23:23;;;;;;;;;1.00;1.00;;;;;9.28;72.02;97969.63;5017730;28;45575;-67
2023/01/17 06:25:49;;;;;;;;;1.00;0.00;;;;;9.30;72.15;97960.06;5018015;28;45893;-68
2023/01/17 06:28:17;;;;;;;;;1.00;1.00;;;;;9.39;71.93;97990.41;5017943;28;45455;-68
2023/01/17 06:30:43;;;;;;;;;1.00;0.00;;;;;9.41;72.30;98000.81;5017432;28;45186;-68
2023/01/17 06:33:09;;;;;;;;;1.00;0.00;;;;;9.37;72.91;98044.28;5017627;28;45541;-68
2023/01/17 06:35:36;;;;;;;;;0.00;0.00;;;;;9.34;73.63;98096.38;5018029;28;45355;-71
2023/01/17 06:38:02;;;;;;;;;1.00;0.00;;;;;9.31;73.47;98165.03;5017562;28;45373;-69
2023/01/17 06:40:28;;;;;;;;;0.00;0.00;;;;;8.85;72.80;98216.31;5018137;28;45438;-69
2023/01/17 06:42:59;;;;;;;;;0.00;0.00;;;;;8.40;71.79;98208.47;5017277;28;45424;-69
2023/01/17 06:45:24;;;;;;;;;1.00;0.25;;;;;7.92;73.23;98225.72;5017830;28;46012;-68
2023/01/17 06:47:50;;;;;;;;;7.50;5.00;;;;;7.97;73.62;98192.78;5017464;28;46453;-68
2023/01/17 06:50:15;;;;;;;;;3.00;1.00;;;;;7.93;72.94;98211.84;5016991;28;45491;-72
2023/01/17 06:52:41;;;;;;;;;0.00;0.00;;;;;7.87;73.68;98217.88;5017671;28;45365;-75
2023/01/17 06:55:08;;;;;;;;;0.25;0.00;;;;;7.88;73.16;98177.19;5017603;28;45692;-67
2023/01/17 06:57:34;;;;;;;;;30.75;27.50;;;;;7.67;73.34;98124.25;5016778;28;46297;-69
2023/01/17 07:00:00;;;;;;;;;1.00;0.00;;;;;7.91;72.98;98156.38;5017220;28;45537;-69
2023/01/17 07:02:25;;;;;;;;;0.00;0.00;;;;;7.74;72.90;98113.03;5017814;28;45836;-68
2023/01/17 07:04:51;;;;;;;;;0.00;0.00;;;;;7.93;72.88;98152.03;5017821;28;45469;-68
2023/01/17 07:07:17;;;;;;;;;1.00;0.00;;;;;7.87;72.82;98149.44;5016949;28;46274;-68
2023/01/17 07:09:42;;;;;;;;;0.00;0.00;;;;;7.99;73.07;98153.78;5016899;28;45559;-67
2023/01/17 07:12:08;;;;;;;;;0.00;0.00;;;;;8.07;72.99;98162.47;5017528;28;45285;-68
2023/01/17 07:14:34;;;;;;;;;0.00;0.00;;;;;8.11;73.04;98154.66;5017757;28;45316;-68
2023/01/17 07:16:59;;;;;;;;;1.00;0.00;;;;;8.14;72.99;98140.81;5017646;28;45621;-69
2023/01/17 07:19:25;;;;;;;;;1.00;0.00;;;;;8.17;72.93;98122.59;5016069;28;45351;-69
2023/01/17 07:21:52;;;;;;;;;1.00;0.00;;;;;8.21;73.03;98131.28;5017193;28;45436;-69
2023/01/17 07:24:19;;;;;;;;;2.00;0.00;;;;;8.28;73.11;98138.22;5016449;28;45515;-69
2023/01/17 07:26:48;;;;;;;;;0.25;0.00;;;;;8.31;73.05;98120.88;5016891;28;46531;-69
2023/01/17 07:29:14;;;;;;;;;4.00;3.00;;;;;8.27;73.02;98119.13;5016966;28;45569;-68
2023/01/17 07:31:40;;;;;;;;;0.25;0.00;;;;;8.39;72.82;98156.44;5009177;28;45554;-70
2023/01/17 07:34:05;;;;;;;;;0.25;0.25;;;;;8.35;72.75;98150.34;5009680;28;45523;-70
2023/01/17 07:36:31;;;;;;;;;0.00;0.00;;;;;8.21;72.76;98145.16;5016585;28;46024;-75
2023/01/17 07:38:57;;;;;;;;;1.75;0.00;;;;;8.44;73.33;98217.19;5016822;28;45517;-75
2023/01/17 07:41:22;;;;;;;;;0.50;0.00;;;;;8.24;74.82;98244.00;5017115;28;45578;-69
2023/01/17 07:43:48;;;;;;;;;1.00;0.00;;;;;8.08;73.44;98211.88;5016883;28;45600;-71
2023/01/17 07:46:16;;;;;;;;;0.00;0.00;;;;;8.04;73.29;98240.44;5016855;28;46026;-69
2023/01/17 07:48:42;;;;;;;;;0.75;0.00;;;;;8.00;73.47;98239.59;5015915;28;45332;-69
2023/01/17 07:51:08;;;;;;;;;0.00;0.00;;;;;7.98;73.10;98233.53;5014568;28;45463;-68
2023/01/17 07:53:35;;;;;;;;;0.00;0.00;;;;;7.91;72.54;98231.75;5015160;28;45567;-68
2023/01/17 07:56:03;;;;;;;;;0.00;0.00;;;;;7.91;71.81;98226.56;5012438;28;45574;-71
2023/01/17 07:58:30;;;;;;;;;0.00;0.00;;;;;7.82;72.00;98216.13;5010920;28;45597;-69
2023/01/17 08:01:08;;;;;;;;;0.00;0.00;;;;;7.83;71.74;98213.53;5014026;28;45450;-76
2023/01/17 08:03:38;;;;;;;;;0.00;0.00;;;;;7.91;71.51;98183.22;5012220;28;45447;-69
2023/01/17 08:06:05;;;;;;;;;1.00;0.00;;;;;7.93;71.15;98167.63;5012867;28;45569;-78
2023/01/17 08:08:31;;;;;;;;;0.25;0.00;;;;;7.77;70.75;98131.22;5012867;28;45722;-70
2023/01/17 08:10:56;;;;;;;;;0.00;0.00;;;;;7.95;69.54;98169.38;5013116;28;45384;-75
2023/01/17 08:13:22;;;;;;;;;0.00;0.00;;;;;7.99;69.90;98149.44;5014846;28;45566;-70
2023/01/17 08:15:49;;;;;;;;;0.00;0.00;;;;;7.97;69.95;98153.78;5009656;28;46112;-75
2023/01/17 08:18:16;;;;;;;;;2.00;2.00;;;;;7.96;70.23;98141.66;5013639;28;45470;-71
2023/01/17 08:20:43;;;;;;;;;0.75;0.00;;;;;8.03;69.99;98174.59;5015104;28;45435;-76
2023/01/17 08:23:09;;;;;;;;;4.00;2.75;;;;;7.97;69.96;98236.97;5013279;28;45459;-79
2023/01/17 08:25:34;;;;;;;;;0.00;0.00;;;;;7.95;70.72;98278.56;5005692;28;46780;-69
2023/01/17 08:28:00;;;;;;;;;0.00;0.00;;;;;7.73;72.13;98285.41;5014451;28;45549;-69
2023/01/17 08:30:26;;;;;;;;;0.00;0.00;;;;;7.80;72.51;98306.22;5013444;28;45507;-67
2023/01/17 08:32:52;;;;;;;;;0.00;0.00;;;;;7.39;71.78;98237.59;5013365;28;45475;-83
2023/01/17 08:35:18;;;;;;;;;0.00;0.00;;;;;7.79;71.90;98297.56;5013538;28;46014;-69
2023/01/17 08:37:44;;;;;;;;;0.00;0.00;;;;;7.76;72.44;98274.16;5014107;28;45755;-70
2023/01/17 08:40:10;;;;;;;;;2.00;2.00;;;;;7.76;71.73;98282.81;5013510;28;45566;-73
2023/01/17 08:42:38;;;;;;;;;3.00;3.00;;;;;7.84;71.51;98280.28;5012215;28;45463;-69
2023/01/17 08:45:06;;;;;;;;;2.00;1.00;;;;;7.93;71.53;98274.22;5010642;28;46956;-70
2023/01/17 08:47:32;;;;;;;;;1.00;0.00;;;;;7.81;71.03;98230.84;5013452;28;45407;-74
2023/01/17 08:49:59;;;;;;;;;4.00;2.00;;;;;8.04;70.98;98266.47;5013296;28;45415;-68
2023/01/17 08:52:27;;;;;;;;;1.00;1.00;;;;;8.12;70.84;98277.78;5013069;28;45626;-70
2023/01/17 08:54:53;;;;;;;;;0.25;0.00;;;;;8.08;70.68;98279.50;5012134;28;45906;-70
2023/01/17 08:57:20;;;;;;;;;0.00;0.00;;;;;8.12;70.34;98280.38;5014076;28;45564;-70
2023/01/17 08:59:46;;;;;;;;;1.25;1.25;;;;;8.13;70.20;98287.31;5012511;28;46014;-75
2023/01/17 09:02:17;;;;;;;;;0.00;0.00;;;;;8.01;69.35;98316.72;5007981;28;45492;-79
2023/01/17 09:04:47;;;;;;;;;0.00;0.00;;;;;8.05;69.04;98295.06;5004915;28;46109;-70
2023/01/17 09:07:14;;;;;;;;;0.00;0.00;;;;;8.02;68.99;98304.59;5008709;28;45426;-78
2023/01/17 09:09:39;;;;;;;;;0.00;0.00;;;;;8.04;69.18;98289.84;5005571;28;45467;-78
2023/01/17 09:12:05;;;;;;;;;0.00;0.00;;;;;7.99;69.00;98304.59;5007546;28;45296;-74
2023/01/17 09:14:31;;;;;;;;;1.75;0.00;;;;;7.95;68.43;98307.16;5009721;28;46574;-77
2023/01/17 09:16:57;;;;;;;;;0.00;0.00;;;;;7.95;68.02;98298.50;5000566;28;45901;-70
2023/01/17 09:19:22;;;;;;;;;0.00;0.00;;;;;7.99;67.65;98308.06;4997105;28;45427;-70
2023/01/17 09:21:48;;;;;;;;;0.00;0.00;;;;;7.99;67.28;98294.19;5007422;28;45586;-68
2023/01/17 09:24:13;;;;;;;;;0.00;0.00;;;;;8.03;67.70;98294.19;5008198;28;45490;-77
2023/01/17 09:26:39;;;;;;;;;1.00;1.00;;;;;8.02;66.69;98282.06;5007800;28;45436;-69
2023/01/17 09:29:05;;;;;;;;;0.00;0.00;;;;;8.07;66.82;98282.94;5009643;28;46245;-72
2023/01/17 09:31:30;;;;;;;;;0.00;0.00;;;;;8.05;67.71;98263.00;5009225;28;45413;-75
2023/01/17 09:33:57;;;;;;;;;0.00;0.00;;;;;8.23;66.92;98281.25;5010874;28;45378;-69
2023/01/17 09:36:27;;;;;;;;;1.00;0.00;;;;;8.38;66.30;98292.59;5011807;28;45478;-68
2023/01/17 09:38:57;;;;;;;;;0.75;0.00;;;;;8.39;65.65;98309.94;5011984;28;45662;-69
2023/01/17 09:41:29;;;;;;;;;0.00;0.00;;;;;8.14;66.00;98279.50;5012037;28;45420;-76
2023/01/17 09:44:20;;;;;;;;;1.00;1.00;;;;;8.29;65.50;98332.44;5008681;28;46159;-75
2023/01/17 09:46:48;;;;;;;;;0.00;0.00;;;;;8.27;65.80;98324.63;5009716;28;45506;-76
2023/01/17 09:49:40;;;;;;;;;1.00;0.00;;;;;8.18;65.53;98332.41;5011493;28;45602;-75
2023/01/17 09:52:08;;;;;;;;;0.00;0.00;;;;;8.10;65.56;98342.78;5008925;28;45420;-77
2023/01/17 09:54:38;;;;;;;;;0.00;0.00;;;;;8.07;64.58;98355.75;5009082;28;46155;-72
2023/01/17 09:57:41;;;;;;;;;0.00;0.00;;;;;7.86;64.40;98356.53;5009169;28;45549;-69
2023/01/17 10:00:38;;;;;;;;;0.00;0.00;;;;;7.76;65.23;98397.19;5016417;28;45398;-67
2023/01/17 10:03:17;;;;;;;;;1.00;0.50;;;;;7.68;66.19;98400.56;5018089;28;45570;-69
2023/01/17 10:06:15;;;;;;;;;0.00;0.00;;;;;7.52;66.75;98403.09;5018341;28;45570;-68
2023/01/17 10:09:09;;;;;;;;;0.00;0.00;;;;;7.56;66.82;98414.38;5007582;28;45583;-69
2023/01/17 10:11:42;;;;;;;;;0.00;0.00;;;;;7.54;67.13;98416.94;5016280;28;45364;-71
2023/01/17 10:14:26;;;;;;;;;0.00;0.00;;;;;7.73;66.91;98414.47;5018213;28;45428;-69
2023/01/17 10:16:54;;;;;;;;;0.00;0.00;;;;;7.86;66.58;98408.53;5018424;28;46469;-69
2023/01/17 10:19:58;;;;;;;;;0.00;0.00;;;;;8.10;66.08;98394.78;5018260;28;45520;-68
2023/01/17 10:22:49;;;;;;;;;0.00;0.00;;;;;8.20;65.23;98397.41;5018558;28;45507;-70
2023/01/17 10:25:33;;;;;;;;;0.00;0.00;;;;;8.44;64.37;98391.50;5018920;28;45882;-70
2023/01/17 10:28:11;;;;;;;;;0.00;0.00;;;;;8.48;64.34;98394.13;5018675;28;46180;-69
2023/01/17 10:30:43;;;;;;;;;0.00;0.00;;;;;8.42;64.14;98365.47;5017985;28;45528;-69
2023/01/17 10:33:20;;;;;;;;;0.00;0.00;;;;;8.50;63.78;98370.72;5018753;28;45264;-72
2023/01/17 10:35:58;;;;;;;;;0.00;0.00;;;;;8.64;63.04;98378.56;5017343;28;45290;-68
2023/01/17 10:38:29;;;;;;;;;0.00;0.00;;;;;8.64;63.76;98375.97;5016580;28;45494;-69
2023/01/17 10:41:04;;;;;;;;;0.00;0.00;;;;;8.41;63.92;98368.94;5018588;28;45421;-69
2023/01/17 10:43:48;;;;;;;;;0.00;0.00;;;;;8.45;64.22;98391.50;5018368;28;45414;-69
2023/01/17 10:46:18;;;;;;;;;0.00;0.00;;;;;8.17;63.93;98367.06;5018696;28;45470;-69
2023/01/17 10:48:48;;;;;;;;;0.00;0.00;;;;;8.36;65.01;98394.91;5018019;28;45560;-68
2023/01/17 10:51:58;;;;;;;;;0.00;0.00;;;;;8.42;64.76;98383.69;5017650;28;45530;-68
2023/01/17 10:54:34;;;;;;;;;0.00;0.00;;;;;8.43;65.18;98385.41;5015792;28;45517;-71
2023/01/17 10:57:01;;;;;;;;;0.00;0.00;;;;;8.25;65.17;98372.31;5017625;28;45444;-67
2023/01/17 10:59:36;;;;;;;;;0.00;0.00;;;;;8.46;65.19;98413.19;5016762;28;46273;-74
2023/01/17 11:02:07;;;;;;;;;0.00;0.00;;;;;8.25;65.17;98383.56;5018405;28;45525;-82
2023/01/17 11:04:39;;;;;;;;;0.00;0.00;;;;;7.37;65.32;98250.56;5017795;28;45474;-70
2023/01/17 11:07:16;;;;;;;;;0.00;0.00;;;;;8.19;65.36;98427.75;5018121;28;45507;-68
2023/01/17 11:09:44;;;;;;;;;0.00;0.00;;;;;8.11;65.28;98440.72;5015547;28;46064;-76
2023/01/17 11:12:22;;;;;;;;;0.00;0.00;;;;;7.93;65.49;98438.00;5017629;28;45446;-70
2023/01/17 11:15:05;;;;;;;;;0.00;0.00;;;;;7.85;65.92;98427.56;5017714;28;45630;-70
2023/01/17 11:17:33;;;;;;;;;1.00;0.50;;;;;7.66;66.39;98408.38;5018161;28;45929;-68
2023/01/17 11:20:11;;;;;;;;;0.00;0.00;;;;;7.73;66.78;98406.69;5017365;28;46152;-69
2023/01/17 11:22:37;;;;;;;;;0.00;0.00;;;;;7.40;66.43;98337.16;5014161;28;45558;-67
2023/01/17 11:25:05;;;;;;;;;0.00;0.00;;;;;7.70;66.99;98401.44;5017841;28;45899;-69
2023/01/17 11:27:35;;;;;;;;;2.00;1.00;;;;;7.74;67.36;98379.84;4998915;28;45383;-69
2023/01/17 11:30:16;;;;;;;;;0.00;0.00;;;;;7.69;66.77;98379.81;5017240;28;45999;-69
2023/01/17 11:32:54;;;;;;;;;2.00;1.00;;;;;7.65;67.37;98387.56;5019253;28;45355;-73
2023/01/17 11:35:24;;;;;;;;;3.25;2.75;;;;;7.68;67.58;98395.38;5017669;28;45497;-75
2023/01/17 11:38:16;;;;;;;;;0.00;0.00;;;;;7.71;67.57;98370.28;5017546;28;45308;-69
2023/01/17 11:40:44;;;;;;;;;6.00;2.25;;;;;7.76;67.28;98358.19;5014541;28;46298;-70
2023/01/17 11:43:25;;;;;;;;;7.00;6.00;;;;;7.82;67.61;98346.09;5018031;28;45900;-70
2023/01/17 11:46:16;;;;;;;;;3.50;3.25;;;;;7.98;67.24;98324.53;5015699;28;45264;-68
2023/01/17 11:48:48;;;;;;;;;1.00;0.00;;;;;8.03;66.74;98317.59;5015474;28;45428;-70
2023/01/17 11:51:20;;;;;;;;;1.75;1.50;;;;;7.91;67.31;98300.22;5017457;28;46116;-69
2023/01/17 11:53:49;;;;;;;;;3.50;3.00;;;;;8.05;67.61;98315.88;5015848;28;45423;-69
2023/01/17 11:56:31;;;;;;;;;3.00;2.00;;;;;7.49;67.97;98238.50;5018048;28;45530;-69
2023/01/17 11:59:18;;;;;;;;;1.00;0.00;;;;;7.98;67.38;98316.72;5018500;28;45462;-68
2023/01/17 12:02:21;;;;;;;;;0.00;0.00;;;;;7.98;68.23;98311.53;5017358;28;46206;-68
2023/01/17 12:05:24;;;;;;;;;2.50;2.50;;;;;7.94;68.93;98322.78;5017941;28;45474;-70
2023/01/17 12:08:17;;;;;;;;;13.00;12.00;;;;;7.92;69.04;98314.09;5018171;28;45543;-71
2023/01/17 12:11:01;;;;;;;;;3.75;3.00;;;;;7.80;70.30;98298.41;5018084;28;45463;-75
2023/01/17 12:14:00;;;;;;;;;12.75;12.75;;;;;7.77;69.16;98289.75;5016519;28;46596;-69
2023/01/17 12:16:46;;;;;;;;;1.00;1.00;;;;;7.79;69.65;98304.50;5016220;28;45623;-69
2023/01/17 12:19:42;;;;;;;;;19.50;18.75;;;;;6.85;69.74;98148.16;5014656;28;45477;-76
2023/01/17 12:22:38;;;;;;;;;22.25;21.00;;;;;7.82;68.14;98289.78;5014228;28;45543;-69
2023/01/17 12:25:25;;;;;;;;;3.50;2.50;;;;;7.90;67.89;98295.03;5016191;28;46244;-68
2023/01/17 12:28:29;;;;;;;;;2.00;1.25;;;;;7.92;67.38;98288.97;5016887;28;45930;-68
2023/01/17 12:31:16;;;;;;;;;49.50;40.75;;;;;7.99;67.69;98291.59;5016936;28;45293;-71
2023/01/17 12:33:54;;;;;;;;;24.00;23.50;;;;;7.99;68.42;98282.06;5017359;28;45672;-69
2023/01/17 12:36:38;;;;;;;;;6.75;5.00;;;;;7.99;69.17;98287.25;5016386;28;46343;-70
2023/01/17 12:39:08;;;;;;;;;4.50;4.50;;;;;7.99;68.07;98274.25;5017628;28;45478;-73
2023/01/17 12:41:47;;;;;;;;;3.25;2.75;;;;;6.45;68.12;98033.75;5022977;28;45327;-74
2023/01/17 12:44:17;;;;;;;;;0.00;0.00;;;;;7.79;68.52;98279.38;5019985;28;45333;-74
2023/01/17 12:46:49;;;;;;;;;77.67;59.33;;;;;7.90;68.24;98275.09;5017609;28;45419;-73
2023/01/17 12:49:31;;;;;;;;;17.75;17.75;;;;;8.02;68.05;98275.97;5017642;28;45401;-74
2023/01/17 12:52:17;;;;;;;;;10.25;10.25;;;;;8.12;66.52;98272.56;5017904;28;45335;-72
2023/01/17 12:55:00;;;;;;;;;1.50;0.75;;;;;8.06;67.21;98272.56;5018823;28;45532;-71
2023/01/17 12:57:39;;;;;;;;;0.00;0.00;;;;;8.13;65.38;98276.91;5016610;28;46060;-70
2023/01/17 13:00:19;;;;;;;;;0.00;0.00;;;;;8.10;65.57;98272.56;5016629;28;45471;-69
2023/01/17 13:03:15;;;;;;;;;0.00;0.00;;;;;8.10;64.84;98276.91;5015847;28;45238;-70
2023/01/17 13:05:45;;;;;;;;;0.00;0.00;;;;;8.07;63.61;98275.13;5019325;28;45311;-69
2023/01/17 13:08:37;;;;;;;;;4.00;4.00;;;;;8.16;64.08;98251.78;5020503;28;45351;-70
2023/01/17 13:11:19;;;;;;;;;0.00;0.00;;;;;8.36;63.01;98217.16;5020581;28;45465;-73
2023/01/17 13:13:46;;;;;;;;;1.50;1.00;;;;;8.32;63.47;98178.97;5020620;28;45481;-68
2023/01/17 13:16:35;;;;;;;;;0.50;0.00;;;;;8.91;62.72;98214.59;5018277;28;45467;-75
2023/01/17 13:19:13;;;;;;;;;1.50;1.00;;;;;9.24;62.17;98204.97;5008346;28;46143;-75
2023/01/17 13:21:40;;;;;;;;;2.25;1.00;;;;;9.51;61.33;98203.16;5014346;28;45380;-73